Time;durP1;ratioP1;P1;durP2;ratioP2;P2;SDS_P1;SDS_P2;PMS_P1;PMS_P2;Temp;Humidity;BMP_temperature;BMP_pressure;BME280_temperature;BME280_humidity;BME280_pressure;Samples;Min_cycle;Max_cycle;Signal;HPM_P1;HPM_P2
2023/09/11 00:01:11;;;;;;;18.73;10.05;;;;;;;;;;5032447;28;20118;-66
2023/09/11 00:03:36;;;;;;;17.05;10.73;;;;;;;;;;5030286;28;20398;-65
2023/09/11 00:06:02;;;;;;;23.08;9.65;;;;;;;;;;5032457;28;20014;-65
2023/09/11 00:08:27;;;;;;;26.80;11.02;;;;;;;;;;5037160;28;20530;-66
2023/09/11 00:10:52;;;;;;;21.52;10.82;;;;;;;;;;5038585;28;20016;-65
2023/09/11 00:13:17;;;;;;;21.63;10.20;;;;;;;;;;5032261;28;20018;-63
2023/09/11 00:15:42;;;;;;;19.15;10.68;;;;;;;;;;5032306;28;20072;-66
2023/09/11 00:18:08;;;;;;;18.70;9.40;;;;;;;;;;5031665;28;20030;-65
2023/09/11 00:20:33;;;;;;;21.35;12.07;;;;;;;;;;5031665;28;20049;-65
2023/09/11 00:22:58;;;;;;;22.55;10.13;;;;;;;;;;5033574;28;20083;-67
2023/09/11 00:25:23;;;;;;;16.83;9.90;;;;;;;;;;5032196;28;20109;-66
2023/09/11 00:27:49;;;;;;;18.13;9.80;;;;;;;;;;5031971;28;20010;-64
2023/09/11 00:30:14;;;;;;;15.90;10.13;;;;;;;;;;5031395;28;20048;-65
2023/09/11 00:32:39;;;;;;;19.85;9.50;;;;;;;;;;5031646;28;20435;-64
2023/09/11 00:35:04;;;;;;;18.25;9.48;;;;;;;;;;5031934;28;20517;-67
2023/09/11 00:37:30;;;;;;;25.63;10.80;;;;;;;;;;5031460;28;20534;-67
2023/09/11 00:39:55;;;;;;;22.55;10.02;;;;;;;;;;5032151;28;20084;-65
2023/09/11 00:42:20;;;;;;;17.43;9.60;;;;;;;;;;5032058;28;20071;-66
2023/09/11 00:44:45;;;;;;;17.55;10.05;;;;;;;;;;5040920;28;20302;-66
2023/09/11 00:47:11;;;;;;;15.93;9.60;;;;;;;;;;5031628;28;20045;-66
2023/09/11 00:49:36;;;;;;;16.33;9.57;;;;;;;;;;5030911;28;20071;-66
2023/09/11 00:52:01;;;;;;;14.35;9.20;;;;;;;;;;5031411;28;20036;-67
2023/09/11 00:54:27;;;;;;;20.60;13.35;;;;;;;;;;5030855;28;20075;-67
2023/09/11 00:56:52;;;;;;;27.50;15.80;;;;;;;;;;5031101;28;20026;-67
2023/09/11 00:59:17;;;;;;;21.88;14.90;;;;;;;;;;5032042;28;20025;-65
2023/09/11 01:01:44;;;;;;;22.42;12.18;;;;;;;;;;5030586;28;20021;-66
2023/09/11 01:04:09;;;;;;;23.13;11.35;;;;;;;;;;5032412;28;20025;-67
2023/09/11 01:06:34;;;;;;;19.88;10.38;;;;;;;;;;5042798;28;20436;-67
2023/09/11 01:09:00;;;;;;;18.02;9.48;;;;;;;;;;5033121;28;20049;-66
2023/09/11 01:11:25;;;;;;;17.60;9.77;;;;;;;;;;5030526;28;20447;-67
2023/09/11 01:13:51;;;;;;;21.20;9.30;;;;;;;;;;5029557;28;20021;-67
2023/09/11 01:16:16;;;;;;;17.67;9.90;;;;;;;;;;5031144;28;20014;-66
2023/09/11 01:18:52;;;;;;;18.13;9.20;;;;;;;;;;5022515;28;20030;-66
2023/09/11 01:21:26;;;;;;;14.32;8.48;;;;;;;;;;5055831;22;20305;-68
2023/09/11 01:23:57;;;;;;;17.73;9.25;;;;;;;;;;5038494;28;20025;-68
2023/09/11 01:26:32;;;;;;;16.25;8.98;;;;;;;;;;5049254;28;20021;-66
2023/09/11 01:29:09;;;;;;;12.77;8.13;;;;;;;;;;5049665;28;20424;-67
2023/09/11 01:31:36;;;;;;;16.13;9.18;;;;;;;;;;5050128;28;20044;-66
2023/09/11 01:34:02;;;;;;;14.75;9.45;;;;;;;;;;5048642;28;20564;-68
2023/09/11 01:36:28;;;;;;;25.58;9.20;;;;;;;;;;5048325;28;20049;-68
2023/09/11 01:38:53;;;;;;;16.77;8.90;;;;;;;;;;5050826;28;20632;-68
2023/09/11 01:41:19;;;;;;;19.83;9.48;;;;;;;;;;5050565;28;20025;-67
2023/09/11 01:43:45;;;;;;;19.42;9.30;;;;;;;;;;5050117;28;20389;-67
2023/09/11 01:46:11;;;;;;;20.60;9.60;;;;;;;;;;5050151;28;20452;-68
2023/09/11 01:48:36;;;;;;;25.13;10.13;;;;;;;;;;5049794;28;20096;-69
2023/09/11 01:51:03;;;;;;;20.67;9.48;;;;;;;;;;5041836;28;20077;-67
2023/09/11 01:53:28;;;;;;;19.38;10.02;;;;;;;;;;5049550;28;20094;-68
2023/09/11 01:55:55;;;;;;;20.38;9.30;;;;;;;;;;5050204;28;20061;-69
2023/09/11 01:58:21;;;;;;;18.38;8.40;;;;;;;;;;5049829;28;20033;-67
2023/09/11 02:00:46;;;;;;;14.65;8.82;;;;;;;;;;5050149;28;20094;-68
2023/09/11 02:03:11;;;;;;;15.27;7.93;;;;;;;;;;5049947;28;20024;-68
2023/09/11 02:05:36;;;;;;;16.33;8.40;;;;;;;;;;5047200;28;20369;-71
2023/09/11 02:08:02;;;;;;;19.98;8.93;;;;;;;;;;5050409;28;20562;-70
2023/09/11 02:10:27;;;;;;;14.50;8.27;;;;;;;;;;5050139;28;20017;-69
2023/09/11 02:12:52;;;;;;;17.55;9.57;;;;;;;;;;5050810;28;20359;-71
2023/09/11 02:15:17;;;;;;;16.30;7.67;;;;;;;;;;5050099;28;20482;-71
2023/09/11 02:17:42;;;;;;;14.02;9.05;;;;;;;;;;5042987;28;20275;-67
2023/09/11 02:20:08;;;;;;;14.43;7.63;;;;;;;;;;5051112;28;20032;-72
2023/09/11 02:22:33;;;;;;;17.92;8.80;;;;;;;;;;5052952;28;20033;-69
2023/09/11 02:24:58;;;;;;;18.23;9.07;;;;;;;;;;5051103;28;20104;-69
2023/09/11 02:27:24;;;;;;;21.40;9.35;;;;;;;;;;5044393;28;20044;-69
2023/09/11 02:29:49;;;;;;;16.13;8.55;;;;;;;;;;5049671;28;20021;-70
2023/09/11 02:32:14;;;;;;;14.50;8.30;;;;;;;;;;5050307;28;20059;-70
2023/09/11 02:34:39;;;;;;;22.75;9.02;;;;;;;;;;5049997;28;20043;-69
2023/09/11 02:37:05;;;;;;;19.02;10.13;;;;;;;;;;5049791;28;20025;-69
2023/09/11 02:39:30;;;;;;;18.13;8.57;;;;;;;;;;5050282;28;20021;-70
2023/09/11 02:41:55;;;;;;;17.17;8.98;;;;;;;;;;5049902;28;20017;-67
2023/09/11 02:44:20;;;;;;;20.20;8.97;;;;;;;;;;5049715;28;20029;-70
2023/09/11 02:46:46;;;;;;;15.73;7.82;;;;;;;;;;5049726;28;20246;-70
2023/09/11 02:49:11;;;;;;;14.50;7.65;;;;;;;;;;5048363;28;20036;-72
2023/09/11 02:51:36;;;;;;;15.13;7.95;;;;;;;;;;5049467;28;20071;-70
2023/09/11 02:54:01;;;;;;;18.30;8.30;;;;;;;;;;5049544;28;20021;-71
2023/09/11 02:56:27;;;;;;;14.25;8.43;;;;;;;;;;5049643;28;20028;-69
2023/09/11 02:58:52;;;;;;;19.77;8.38;;;;;;;;;;5049642;28;20025;-68
2023/09/11 03:01:18;;;;;;;13.38;7.75;;;;;;;;;;5050037;28;20074;-71
2023/09/11 03:03:43;;;;;;;16.55;8.15;;;;;;;;;;5048569;28;20017;-70
2023/09/11 03:06:08;;;;;;;19.98;9.18;;;;;;;;;;5048632;28;20024;-69
2023/09/11 03:08:33;;;;;;;18.02;8.30;;;;;;;;;;5049521;28;20025;-70
2023/09/11 03:11:09;;;;;;;12.18;7.93;;;;;;;;;;5049025;28;20029;-72
2023/09/11 03:13:34;;;;;;;17.15;8.75;;;;;;;;;;5049217;28;20386;-71
2023/09/11 03:16:06;;;;;;;16.75;8.52;;;;;;;;;;5049192;28;20025;-70
2023/09/11 03:18:31;;;;;;;19.15;9.32;;;;;;;;;;5038583;28;20075;-72
2023/09/11 03:20:56;;;;;;;17.15;9.63;;;;;;;;;;5047507;28;20041;-71
2023/09/11 03:23:22;;;;;;;18.98;8.80;;;;;;;;;;5048568;28;20086;-72
2023/09/11 03:25:47;;;;;;;17.35;9.20;;;;;;;;;;5049424;28;20017;-70
2023/09/11 03:28:13;;;;;;;18.27;9.45;;;;;;;;;;5048847;28;20055;-68
2023/09/11 03:30:40;;;;;;;19.30;9.10;;;;;;;;;;5048758;28;20044;-69
2023/09/11 03:33:06;;;;;;;22.70;9.02;;;;;;;;;;5047740;28;20052;-70
2023/09/11 03:35:31;;;;;;;24.17;8.95;;;;;;;;;;5048841;28;20053;-71
2023/09/11 03:37:56;;;;;;;15.60;8.38;;;;;;;;;;5048505;28;20390;-70
2023/09/11 03:40:22;;;;;;;16.35;8.40;;;;;;;;;;5049265;28;20033;-71
2023/09/11 03:42:48;;;;;;;21.42;10.18;;;;;;;;;;5049066;28;20024;-71
2023/09/11 03:45:13;;;;;;;14.32;8.77;;;;;;;;;;5047742;28;20029;-70
2023/09/11 03:47:38;;;;;;;18.08;8.82;;;;;;;;;;5048736;28;20097;-70
2023/09/11 03:50:04;;;;;;;17.58;8.75;;;;;;;;;;5049128;28;20017;-72
2023/09/11 03:52:29;;;;;;;23.33;8.90;;;;;;;;;;5049509;28;20021;-70
2023/09/11 03:54:54;;;;;;;16.30;8.93;;;;;;;;;;5048934;28;20017;-71
2023/09/11 03:57:20;;;;;;;19.95;9.70;;;;;;;;;;5047557;28;20391;-71
2023/09/11 03:59:45;;;;;;;18.75;9.73;;;;;;;;;;5049750;28;20548;-71
2023/09/11 04:02:10;;;;;;;18.63;9.27;;;;;;;;;;5049242;28;20017;-71
2023/09/11 04:04:35;;;;;;;20.38;10.25;;;;;;;;;;5049157;28;20053;-71
2023/09/11 04:07:00;;;;;;;21.73;10.23;;;;;;;;;;5048874;28;20045;-69
2023/09/11 04:09:26;;;;;;;21.10;8.75;;;;;;;;;;5042919;28;20017;-70
2023/09/11 04:11:51;;;;;;;16.50;9.55;;;;;;;;;;5046011;28;20104;-68
2023/09/11 04:14:16;;;;;;;15.00;8.95;;;;;;;;;;5048382;28;20032;-71
2023/09/11 04:16:42;;;;;;;18.90;9.07;;;;;;;;;;5047845;28;20075;-70
2023/09/11 04:19:07;;;;;;;14.63;9.38;;;;;;;;;;5040600;28;20100;-71
2023/09/11 04:21:32;;;;;;;17.02;9.90;;;;;;;;;;5042274;28;20024;-70
2023/09/11 04:23:58;;;;;;;18.58;9.27;;;;;;;;;;5049645;28;20047;-70
2023/09/11 04:26:23;;;;;;;17.85;10.18;;;;;;;;;;5050665;28;20021;-69
2023/09/11 04:28:48;;;;;;;22.83;12.57;;;;;;;;;;5051861;28;20056;-71
2023/09/11 04:31:13;;;;;;;26.65;12.82;;;;;;;;;;5052007;28;20025;-70
2023/09/11 04:33:39;;;;;;;20.90;12.85;;;;;;;;;;5052795;28;20104;-69
2023/09/11 04:36:04;;;;;;;22.63;11.90;;;;;;;;;;5049812;28;20028;-69
2023/09/11 04:38:29;;;;;;;25.80;10.00;;;;;;;;;;5052694;28;20031;-68
2023/09/11 04:40:56;;;;;;;26.52;10.82;;;;;;;;;;5049564;28;20024;-68
2023/09/11 04:43:21;;;;;;;21.45;10.27;;;;;;;;;;5049428;28;20044;-69
2023/09/11 04:45:47;;;;;;;22.75;9.80;;;;;;;;;;5048852;28;20470;-70
2023/09/11 04:48:12;;;;;;;19.83;9.18;;;;;;;;;;5049396;28;20056;-69
2023/09/11 04:50:37;;;;;;;16.20;9.95;;;;;;;;;;5047247;28;20013;-69
2023/09/11 04:53:02;;;;;;;20.02;9.38;;;;;;;;;;5051559;28;20086;-69
2023/09/11 04:55:28;;;;;;;18.58;9.75;;;;;;;;;;5047722;28;20026;-69
2023/09/11 04:57:53;;;;;;;17.63;9.75;;;;;;;;;;5050130;28;20478;-69
2023/09/11 05:00:18;;;;;;;16.40;9.02;;;;;;;;;;5046234;28;20049;-69
2023/09/11 05:02:46;;;;;;;22.50;9.27;;;;;;;;;;5047259;28;20131;-68
2023/09/11 05:05:11;;;;;;;20.33;10.27;;;;;;;;;;5052469;28;20021;-70
2023/09/11 05:07:36;;;;;;;19.80;9.05;;;;;;;;;;5050379;28;20028;-69
2023/09/11 05:10:05;;;;;;;17.00;8.80;;;;;;;;;;5049388;28;20036;-69
2023/09/11 05:12:30;;;;;;;14.95;8.90;;;;;;;;;;5050299;28;20115;-70
2023/09/11 05:14:55;;;;;;;16.80;8.85;;;;;;;;;;5048029;28;20475;-70
2023/09/11 05:17:21;;;;;;;16.83;9.85;;;;;;;;;;5045116;28;20053;-69
2023/09/11 05:19:46;;;;;;;19.10;8.85;;;;;;;;;;5048681;28;20032;-69
2023/09/11 05:22:11;;;;;;;18.58;8.93;;;;;;;;;;5051197;28;20024;-69
2023/09/11 05:24:36;;;;;;;20.90;9.40;;;;;;;;;;5046769;28;20482;-69
2023/09/11 05:27:02;;;;;;;23.83;10.95;;;;;;;;;;5050041;28;20021;-71
2023/09/11 05:29:28;;;;;;;20.50;9.20;;;;;;;;;;5045887;28;20030;-67
2023/09/11 05:31:53;;;;;;;21.05;9.93;;;;;;;;;;5048384;28;20020;-70
2023/09/11 05:34:18;;;;;;;21.63;9.43;;;;;;;;;;5050577;28;20025;-68
2023/09/11 05:36:43;;;;;;;17.08;9.35;;;;;;;;;;5050645;28;20025;-67
2023/09/11 05:39:09;;;;;;;21.80;9.25;;;;;;;;;;5048007;28;20037;-68
2023/09/11 05:41:35;;;;;;;15.57;9.23;;;;;;;;;;5050494;28;20027;-70
2023/09/11 05:44:00;;;;;;;17.33;9.43;;;;;;;;;;5045786;28;20035;-70
2023/09/11 05:46:26;;;;;;;16.27;9.75;;;;;;;;;;5050373;28;20109;-68
2023/09/11 05:48:51;;;;;;;17.17;9.30;;;;;;;;;;5050506;28;20043;-70
2023/09/11 05:51:16;;;;;;;17.48;9.10;;;;;;;;;;5050464;28;20017;-70
2023/09/11 05:53:41;;;;;;;21.63;9.07;;;;;;;;;;5050121;28;20032;-68
2023/09/11 05:56:07;;;;;;;25.23;10.65;;;;;;;;;;5048779;28;20021;-70
2023/09/11 05:58:32;;;;;;;20.73;10.18;;;;;;;;;;5050508;28;20086;-68
2023/09/11 06:00:57;;;;;;;17.00;9.13;;;;;;;;;;5049381;28;20021;-70
2023/09/11 06:03:23;;;;;;;31.08;11.07;;;;;;;;;;5049912;28;20426;-68
2023/09/11 06:05:48;;;;;;;22.33;9.95;;;;;;;;;;5050415;28;20082;-69
2023/09/11 06:08:13;;;;;;;16.63;9.55;;;;;;;;;;5050246;28;20025;-69
2023/09/11 06:10:39;;;;;;;20.42;11.20;;;;;;;;;;5050498;28;20024;-70
2023/09/11 06:13:04;;;;;;;24.00;11.32;;;;;;;;;;5050635;28;20148;-70
2023/09/11 06:15:29;;;;;;;20.75;10.73;;;;;;;;;;5050278;28;20025;-71
2023/09/11 06:17:55;;;;;;;23.27;11.13;;;;;;;;;;5049304;28;20028;-69
2023/09/11 06:20:21;;;;;;;22.92;10.88;;;;;;;;;;5048268;28;20029;-70
2023/09/11 06:22:46;;;;;;;21.98;11.18;;;;;;;;;;5047035;28;20021;-68
2023/09/11 06:25:12;;;;;;;24.27;12.13;;;;;;;;;;5040345;28;20035;-67
2023/09/11 06:27:37;;;;;;;27.23;10.35;;;;;;;;;;5049525;28;20038;-69
2023/09/11 06:30:05;;;;;;;21.42;10.35;;;;;;;;;;5047749;28;20540;-67
2023/09/11 06:32:31;;;;;;;33.67;11.25;;;;;;;;;;5044592;28;20012;-70
2023/09/11 06:34:56;;;;;;;27.80;10.77;;;;;;;;;;5047002;28;20052;-68
2023/09/11 06:37:22;;;;;;;25.05;11.05;;;;;;;;;;5049927;28;20054;-68
2023/09/11 06:39:50;;;;;;;18.35;10.00;;;;;;;;;;5048988;28;20032;-70
2023/09/11 06:42:22;;;;;;;30.77;11.57;;;;;;;;;;5049656;28;20457;-69
2023/09/11 06:44:47;;;;;;;19.05;10.40;;;;;;;;;;5048328;28;20056;-68
2023/09/11 06:47:13;;;;;;;26.70;10.55;;;;;;;;;;5044642;28;20047;-68
2023/09/11 06:49:38;;;;;;;31.85;11.75;;;;;;;;;;5048684;28;20021;-68
2023/09/11 06:52:03;;;;;;;24.02;10.77;;;;;;;;;;5049746;28;20105;-69
2023/09/11 06:54:28;;;;;;;25.10;11.02;;;;;;;;;;5045919;28;20037;-70
2023/09/11 06:56:54;;;;;;;19.45;9.88;;;;;;;;;;5048473;28;20095;-71
2023/09/11 06:59:19;;;;;;;24.95;11.50;;;;;;;;;;5048966;28;20025;-69
2023/09/11 07:01:45;;;;;;;22.58;11.13;;;;;;;;;;5049212;28;20066;-70
2023/09/11 07:04:11;;;;;;;23.13;11.20;;;;;;;;;;5048376;28;20478;-68
2023/09/11 07:06:38;;;;;;;27.95;11.50;;;;;;;;;;5047254;28;20654;-68
2023/09/11 07:09:04;;;;;;;35.55;12.05;;;;;;;;;;5049184;28;20017;-69
2023/09/11 07:11:29;;;;;;;34.00;11.38;;;;;;;;;;5049552;28;20025;-69
2023/09/11 07:13:55;;;;;;;31.90;12.38;;;;;;;;;;5049628;28;20033;-69
2023/09/11 07:16:20;;;;;;;19.60;10.25;;;;;;;;;;5049331;28;20013;-69
2023/09/11 07:18:46;;;;;;;20.23;10.35;;;;;;;;;;5048870;28;20040;-67
2023/09/11 07:21:11;;;;;;;23.42;9.40;;;;;;;;;;5061550;22;20037;-65
2023/09/11 07:23:36;;;;;;;24.73;10.30;;;;;;;;;;5049257;28;20092;-68
2023/09/11 07:26:01;;;;;;;23.92;10.98;;;;;;;;;;5049067;28;20021;-67
2023/09/11 07:28:27;;;;;;;20.70;10.55;;;;;;;;;;5043938;28;20018;-68
2023/09/11 07:30:53;;;;;;;20.65;10.60;;;;;;;;;;5047882;28;20024;-66
2023/09/11 07:33:19;;;;;;;17.33;9.57;;;;;;;;;;5048697;28;20029;-68
2023/09/11 07:35:45;;;;;;;22.00;10.07;;;;;;;;;;5048598;28;20478;-67
2023/09/11 07:38:10;;;;;;;18.38;9.38;;;;;;;;;;5048786;28;20091;-67
2023/09/11 07:40:35;;;;;;;18.75;10.20;;;;;;;;;;5050930;28;20164;-67
2023/09/11 07:43:01;;;;;;;19.58;9.40;;;;;;;;;;5049711;28;20402;-68
2023/09/11 07:45:26;;;;;;;22.50;9.47;;;;;;;;;;5049123;28;20344;-66
2023/09/11 07:47:51;;;;;;;20.63;9.65;;;;;;;;;;5046805;28;20278;-67
2023/09/11 07:50:16;;;;;;;21.20;8.88;;;;;;;;;;5040336;28;20021;-67
2023/09/11 07:52:42;;;;;;;21.50;9.52;;;;;;;;;;5049810;28;20021;-67
2023/09/11 07:55:07;;;;;;;21.67;10.32;;;;;;;;;;5048804;28;20021;-68
2023/09/11 07:57:33;;;;;;;16.88;7.72;;;;;;;;;;5049006;28;20017;-68
2023/09/11 08:00:04;;;;;;;16.00;8.40;;;;;;;;;;5052986;28;20520;-68
2023/09/11 08:03:03;;;;;;;16.08;8.32;;;;;;;;;;5053980;28;20028;-77
2023/09/11 08:05:29;;;;;;;15.43;7.80;;;;;;;;;;5052658;28;20017;-67
2023/09/11 08:07:54;;;;;;;20.08;9.43;;;;;;;;;;5052811;28;20094;-66
2023/09/11 08:10:19;;;;;;;15.65;9.13;;;;;;;;;;5053085;28;20382;-68
2023/09/11 08:12:44;;;;;;;15.10;8.43;;;;;;;;;;5053100;28;20080;-64
2023/09/11 08:15:10;;;;;;;18.92;9.10;;;;;;;;;;5052596;28;20104;-68
2023/09/11 08:17:35;;;;;;;16.70;8.43;;;;;;;;;;5052068;28;20017;-68
2023/09/11 08:20:00;;;;;;;23.17;8.90;;;;;;;;;;5051438;28;20474;-68
2023/09/11 08:22:26;;;;;;;18.20;9.27;;;;;;;;;;5052161;28;20327;-67
2023/09/11 08:24:51;;;;;;;22.25;8.60;;;;;;;;;;5052288;28;20048;-67
2023/09/11 08:27:17;;;;;;;22.27;9.07;;;;;;;;;;5051968;28;20055;-66
2023/09/11 08:29:42;;;;;;;19.15;9.38;;;;;;;;;;5052112;28;20066;-68
2023/09/11 08:32:07;;;;;;;34.13;10.63;;;;;;;;;;5052165;28;20418;-67
2023/09/11 08:34:32;;;;;;;15.82;7.57;;;;;;;;;;5052159;28;20218;-68
2023/09/11 08:36:58;;;;;;;14.73;7.90;;;;;;;;;;5051827;28;20035;-67
2023/09/11 08:39:23;;;;;;;12.88;6.70;;;;;;;;;;5052595;28;20043;-67
2023/09/11 08:41:50;;;;;;;13.40;7.10;;;;;;;;;;5050381;28;20082;-67
2023/09/11 08:44:15;;;;;;;15.13;7.30;;;;;;;;;;5046391;28;20053;-67
2023/09/11 08:46:45;;;;;;;10.73;6.40;;;;;;;;;;5051810;28;20552;-68
2023/09/11 08:49:11;;;;;;;16.20;8.20;;;;;;;;;;5050651;28;20031;-69
2023/09/11 08:51:43;;;;;;;16.00;8.00;;;;;;;;;;5052568;28;20021;-65
2023/09/11 08:54:09;;;;;;;29.83;8.25;;;;;;;;;;5052057;28;20057;-67
2023/09/11 08:56:35;;;;;;;14.05;6.55;;;;;;;;;;5052187;28;20118;-65
2023/09/11 08:59:00;;;;;;;14.15;6.32;;;;;;;;;;5051802;28;20036;-67
2023/09/11 09:01:27;;;;;;;17.80;6.95;;;;;;;;;;5052862;28;20025;-68
2023/09/11 09:03:52;;;;;;;10.68;6.55;;;;;;;;;;5051844;28;20043;-67
2023/09/11 09:06:19;;;;;;;11.32;5.97;;;;;;;;;;5051546;28;20033;-68
2023/09/11 09:08:44;;;;;;;15.32;7.28;;;;;;;;;;5051525;28;20078;-67
2023/09/11 09:11:10;;;;;;;14.15;6.45;;;;;;;;;;5051828;28;20024;-67
2023/09/11 09:13:36;;;;;;;11.65;6.53;;;;;;;;;;5052091;28;20060;-66
2023/09/11 09:16:02;;;;;;;14.15;6.78;;;;;;;;;;5052269;28;20029;-66
2023/09/11 09:18:27;;;;;;;12.15;6.90;;;;;;;;;;5051363;28;20021;-67
2023/09/11 09:20:55;;;;;;;11.43;6.57;;;;;;;;;;5051382;28;20029;-67
2023/09/11 09:23:30;;;;;;;13.38;6.25;;;;;;;;;;5052004;28;20394;-68
2023/09/11 09:26:02;;;;;;;13.07;6.32;;;;;;;;;;5051318;28;20032;-67
2023/09/11 09:28:28;;;;;;;12.20;6.22;;;;;;;;;;5045766;28;20017;-65
2023/09/11 09:30:54;;;;;;;11.90;6.80;;;;;;;;;;5049705;28;20021;-67
2023/09/11 09:33:20;;;;;;;13.27;5.85;;;;;;;;;;5051612;28;20100;-67
2023/09/11 09:35:45;;;;;;;10.95;6.68;;;;;;;;;;5051845;28;20090;-67
2023/09/11 09:38:12;;;;;;;12.55;5.90;;;;;;;;;;5049505;28;20063;-67
2023/09/11 09:40:38;;;;;;;11.20;6.13;;;;;;;;;;5051079;28;20082;-67
2023/09/11 09:43:05;;;;;;;11.77;6.10;;;;;;;;;;5049444;28;20108;-67
2023/09/11 09:45:34;;;;;;;14.82;6.45;;;;;;;;;;5050977;28;20025;-68
2023/09/11 09:48:09;;;;;;;11.73;6.05;;;;;;;;;;5050399;28;20021;-65
2023/09/11 09:50:49;;;;;;;15.15;5.72;;;;;;;;;;5050955;28;20075;-69
2023/09/11 09:53:19;;;;;;;12.43;5.40;;;;;;;;;;5040263;28;20024;-68
2023/09/11 09:55:44;;;;;;;11.05;6.38;;;;;;;;;;5050501;28;20104;-67
2023/09/11 09:58:11;;;;;;;11.65;6.10;;;;;;;;;;5050420;28;20049;-69
2023/09/11 10:00:36;;;;;;;12.23;4.38;;;;;;;;;;5050570;28;20087;-68
2023/09/11 10:03:02;;;;;;;15.27;5.07;;;;;;;;;;5050063;28;20021;-68
2023/09/11 10:05:27;;;;;;;11.35;4.60;;;;;;;;;;5050136;28;20029;-67
2023/09/11 10:07:52;;;;;;;13.88;4.85;;;;;;;;;;5050050;28;20028;-66
2023/09/11 10:10:21;;;;;;;15.80;4.93;;;;;;;;;;5050783;28;20074;-68
2023/09/11 10:12:46;;;;;;;;;;;;;;;;;;5040807;28;20017;-68
2023/09/11 10:15:12;;;;;;;13.60;4.97;;;;;;;;;;5050586;28;19905;-66
2023/09/11 10:17:38;;;;;;;10.50;5.18;;;;;;;;;;5049260;28;20047;-67
2023/09/11 10:20:03;;;;;;;13.50;4.38;;;;;;;;;;5050305;28;20074;-65
2023/09/11 10:22:28;;;;;;;16.00;5.78;;;;;;;;;;5049643;28;20060;-66
2023/09/11 10:24:53;;;;;;;10.70;5.28;;;;;;;;;;5050526;28;20021;-67
2023/09/11 10:27:19;;;;;;;13.43;4.85;;;;;;;;;;5048665;28;20021;-67
2023/09/11 10:29:48;;;;;;;18.80;5.75;;;;;;;;;;5049862;28;20075;-69
2023/09/11 10:32:25;;;;;;;13.68;6.07;;;;;;;;;;5049694;28;20067;-67
2023/09/11 10:34:51;;;;;;;14.25;5.63;;;;;;;;;;5049867;28;20296;-68
2023/09/11 10:37:17;;;;;;;15.40;5.75;;;;;;;;;;5049419;28;20032;-67
2023/09/11 10:39:43;;;;;;;15.75;5.25;;;;;;;;;;5049541;28;20024;-67
2023/09/11 10:42:08;;;;;;;10.07;5.80;;;;;;;;;;5048323;28;20028;-66
2023/09/11 10:44:35;;;;;;;11.65;5.70;;;;;;;;;;5044581;28;20280;-68
2023/09/11 10:47:01;;;;;;;12.23;6.10;;;;;;;;;;5049731;28;20027;-69
2023/09/11 10:49:27;;;;;;;12.75;6.22;;;;;;;;;;5049470;28;20059;-69
2023/09/11 10:51:53;;;;;;;16.63;5.80;;;;;;;;;;5049837;28;20367;-67
2023/09/11 10:54:21;;;;;;;11.18;5.88;;;;;;;;;;5049616;28;20497;-67
2023/09/11 10:56:50;;;;;;;10.23;5.50;;;;;;;;;;5048976;28;20017;-66
2023/09/11 10:59:16;;;;;;;15.57;5.55;;;;;;;;;;5046603;28;20017;-66
2023/09/11 11:01:43;;;;;;;12.25;5.88;;;;;;;;;;5048912;28;20020;-67
2023/09/11 11:04:12;;;;;;;8.27;5.40;;;;;;;;;;5051420;28;20044;-68
2023/09/11 11:06:42;;;;;;;11.15;6.13;;;;;;;;;;5048916;28;20088;-68
2023/09/11 11:09:22;;;;;;;11.77;5.95;;;;;;;;;;5049550;28;20513;-67
2023/09/11 11:11:47;;;;;;;8.43;5.40;;;;;;;;;;5049484;28;20459;-67
2023/09/11 11:14:14;;;;;;;10.50;5.38;;;;;;;;;;5050160;28;20017;-66
2023/09/11 11:16:39;;;;;;;13.63;5.53;;;;;;;;;;5049618;28;20096;-65
2023/09/11 11:19:04;;;;;;;11.15;6.03;;;;;;;;;;5049082;28;20494;-67
2023/09/11 11:21:39;;;;;;;11.20;5.57;;;;;;;;;;5049006;28;20025;-67
2023/09/11 11:24:05;;;;;;;15.88;5.63;;;;;;;;;;5049505;28;20429;-68
2023/09/11 11:26:30;;;;;;;12.10;5.82;;;;;;;;;;5048756;28;20532;-67
2023/09/11 11:28:56;;;;;;;10.13;5.72;;;;;;;;;;5047398;28;20041;-66
2023/09/11 11:31:22;;;;;;;15.20;5.72;;;;;;;;;;5049419;28;20063;-67
2023/09/11 11:33:51;;;;;;;12.20;5.63;;;;;;;;;;5052649;28;20371;-67
2023/09/11 11:36:17;;;;;;;11.40;5.50;;;;;;;;;;5053270;28;20028;-65
2023/09/11 11:38:43;;;;;;;15.13;5.68;;;;;;;;;;5053428;28;20435;-67
2023/09/11 11:41:09;;;;;;;17.45;5.50;;;;;;;;;;5053783;28;20188;-68
2023/09/11 11:43:34;;;;;;;13.30;5.35;;;;;;;;;;5051901;28;20131;-67
2023/09/11 11:46:00;;;;;;;13.95;6.13;;;;;;;;;;5048593;28;20474;-66
2023/09/11 11:48:28;;;;;;;13.40;5.93;;;;;;;;;;5052730;28;20017;-67
2023/09/11 11:50:53;;;;;;;17.48;5.32;;;;;;;;;;5053239;28;20013;-68
2023/09/11 11:53:22;;;;;;;15.63;6.40;;;;;;;;;;5053137;28;20079;-67
2023/09/11 11:55:48;;;;;;;10.82;6.07;;;;;;;;;;5052196;28;20188;-63
2023/09/11 11:58:14;;;;;;;17.13;5.97;;;;;;;;;;5052535;28;20092;-67
2023/09/11 12:00:54;;;;;;;13.65;5.57;;;;;;;;;;5052783;28;20078;-65
2023/09/11 12:03:20;;;;;;;20.83;7.35;;;;;;;;;;5052583;28;20460;-65
2023/09/11 12:05:45;;;;;;;13.70;4.78;;;;;;;;;;5052173;28;20109;-68
2023/09/11 12:08:11;;;;;;;15.23;5.22;;;;;;;;;;5052329;28;20025;-67
2023/09/11 12:10:44;;;;;;;10.18;4.90;;;;;;;;;;5053026;28;20013;-66
2023/09/11 12:13:10;;;;;;;10.98;4.70;;;;;;;;;;5052118;28;20092;-67
2023/09/11 12:15:35;;;;;;;9.55;4.45;;;;;;;;;;5053132;28;20457;-67
2023/09/11 12:18:00;;;;;;;8.07;4.53;;;;;;;;;;5052220;28;20013;-66
2023/09/11 12:20:26;;;;;;;8.68;4.32;;;;;;;;;;5051743;28;20266;-67
2023/09/11 12:22:51;;;;;;;13.33;5.27;;;;;;;;;;5052014;28;20032;-66
2023/09/11 12:25:17;;;;;;;9.88;4.35;;;;;;;;;;5052238;28;20274;-67
2023/09/11 12:27:43;;;;;;;14.27;4.75;;;;;;;;;;5050860;28;20086;-66
2023/09/11 12:30:10;;;;;;;9.27;4.82;;;;;;;;;;5050468;28;20087;-69
2023/09/11 12:32:35;;;;;;;12.55;4.78;;;;;;;;;;5051946;28;20025;-67
2023/09/11 12:35:01;;;;;;;12.45;4.07;;;;;;;;;;5052104;28;20104;-68
2023/09/11 12:37:26;;;;;;;12.25;5.05;;;;;;;;;;5049417;28;20104;-68
2023/09/11 12:39:52;;;;;;;8.68;3.97;;;;;;;;;;5052052;28;20021;-67
2023/09/11 12:42:17;;;;;;;8.73;4.65;;;;;;;;;;5051879;28;20025;-67
2023/09/11 12:44:42;;;;;;;13.55;4.70;;;;;;;;;;5050430;28;20105;-66
2023/09/11 12:47:08;;;;;;;11.82;4.38;;;;;;;;;;5051656;28;20269;-65
2023/09/11 12:49:33;;;;;;;12.90;4.85;;;;;;;;;;5051768;28;20009;-68
2023/09/11 12:51:59;;;;;;;11.02;4.57;;;;;;;;;;5051606;28;20162;-67
2023/09/11 12:54:24;;;;;;;10.82;4.65;;;;;;;;;;5047705;28;20471;-67
2023/09/11 12:56:50;;;;;;;11.55;5.00;;;;;;;;;;5049876;28;20636;-68
2023/09/11 12:59:15;;;;;;;13.93;4.97;;;;;;;;;;5041374;28;20028;-66
2023/09/11 13:01:40;;;;;;;11.68;5.28;;;;;;;;;;5046046;28;20162;-67
2023/09/11 13:04:06;;;;;;;10.25;4.53;;;;;;;;;;5045104;28;20028;-69
2023/09/11 13:06:31;;;;;;;12.50;5.78;;;;;;;;;;5044713;28;20374;-69
2023/09/11 13:08:56;;;;;;;9.90;4.68;;;;;;;;;;5043440;28;20014;-69
2023/09/11 13:11:21;;;;;;;7.80;4.85;;;;;;;;;;5043488;28;20029;-66
2023/09/11 13:13:47;;;;;;;10.73;4.90;;;;;;;;;;5043153;28;20009;-68
2023/09/11 13:16:12;;;;;;;11.63;5.00;;;;;;;;;;5043245;28;20285;-68
2023/09/11 13:18:37;;;;;;;11.07;4.93;;;;;;;;;;5044124;28;20043;-66
2023/09/11 13:23:29;;;;;;;16.30;6.22;;;;;;;;;;5044901;28;20349;-71
2023/09/11 13:25:55;;;;;;;13.07;5.30;;;;;;;;;;5048466;28;20067;-72
2023/09/11 13:28:21;;;;;;;16.05;5.18;;;;;;;;;;5047781;28;20029;-72
2023/09/11 13:30:46;;;;;;;14.32;4.88;;;;;;;;;;5048583;28;20025;-72
2023/09/11 13:33:11;;;;;;;13.27;5.15;;;;;;;;;;5030074;28;20026;-69
2023/09/11 13:35:36;;;;;;;9.93;5.13;;;;;;;;;;5028867;28;20022;-72
2023/09/11 13:38:02;;;;;;;9.67;4.90;;;;;;;;;;5029128;28;20397;-70
2023/09/11 13:40:28;;;;;;;11.68;4.80;;;;;;;;;;5029529;28;20282;-69
2023/09/11 13:42:53;;;;;;;18.13;6.18;;;;;;;;;;5029623;28;20194;-73
2023/09/11 13:45:19;;;;;;;10.40;5.30;;;;;;;;;;5034948;28;20036;-69
2023/09/11 13:47:44;;;;;;;20.17;5.53;;;;;;;;;;5029510;28;20111;-72
2023/09/11 13:50:10;;;;;;;10.73;5.43;;;;;;;;;;5030758;28;20427;-73
2023/09/11 13:52:36;;;;;;;9.43;5.28;;;;;;;;;;5029677;28;20475;-72
2023/09/11 13:55:01;;;;;;;12.85;5.38;;;;;;;;;;5028727;28;20114;-70
2023/09/11 13:57:26;;;;;;;16.80;5.15;;;;;;;;;;5028685;28;20481;-72
2023/09/11 13:59:52;;;;;;;11.90;5.10;;;;;;;;;;5029149;28;20022;-70
2023/09/11 14:02:17;;;;;;;11.20;5.77;;;;;;;;;;5027668;28;20332;-69
2023/09/11 14:04:42;;;;;;;18.15;5.78;;;;;;;;;;5024694;28;20275;-70
2023/09/11 14:07:07;;;;;;;17.93;5.33;;;;;;;;;;5029158;28;20450;-72
2023/09/11 14:09:33;;;;;;;12.38;5.85;;;;;;;;;;5026285;28;20947;-73
2023/09/11 14:11:58;;;;;;;12.30;5.17;;;;;;;;;;5028088;28;20097;-70
2023/09/11 14:14:23;;;;;;;13.18;5.20;;;;;;;;;;5037653;28;20308;-73
2023/09/11 14:16:48;;;;;;;17.43;4.90;;;;;;;;;;5030529;28;20125;-71
2023/09/11 14:19:14;;;;;;;16.98;5.28;;;;;;;;;;5028375;28;20258;-73
2023/09/11 14:21:39;;;;;;;14.13;5.05;;;;;;;;;;5027666;28;20063;-70
2023/09/11 14:24:04;;;;;;;13.67;5.10;;;;;;;;;;5020011;28;20021;-71